Time;durP1;ratioP1;P1;durP2;ratioP2;P2;SDS_P1;SDS_P2;PMS_P1;PMS_P2;Temp;Humidity;BMP_temperature;BMP_pressure;BME280_temperature;BME280_humidity;BME280_pressure;Samples;Min_cycle;Max_cycle;Signal;HPM_P1;HPM_P2
2023/05/22 00:01:27;;;;;;;;;13.25;11.50;25.50;46.10;;;;;;111507;1238;49216;-67
2023/05/22 00:03:54;;;;;;;;;14.75;13.75;25.50;46.10;;;;;;111625;1242;45967;-66
2023/05/22 00:06:22;;;;;;;;;15.00;12.00;25.50;46.10;;;;;;111674;1235;55349;-66
2023/05/22 00:08:49;;;;;;;;;14.75;13.75;25.50;46.30;;;;;;111536;1237;54348;-66
2023/05/22 00:11:17;;;;;;;;;12.67;10.00;25.50;46.10;;;;;;111560;1237;50106;-67
2023/05/22 00:13:44;;;;;;;;;13.25;12.00;25.40;46.00;;;;;;111629;1238;49772;-68
2023/05/22 00:16:11;;;;;;;;;13.75;12.00;25.40;46.00;;;;;;111673;1235;45331;-68
2023/05/22 00:18:41;;;;;;;;;13.75;11.00;25.40;46.00;;;;;;111603;1235;55730;-68
2023/05/22 00:21:08;;;;;;;;;13.50;12.50;25.40;46.00;;;;;;111505;1241;54608;-68
2023/05/22 00:23:35;;;;;;;;;12.00;11.00;25.40;46.00;;;;;;111551;1240;49660;-68
2023/05/22 00:26:03;;;;;;;;;13.00;12.00;25.40;46.00;;;;;;111617;1238;49735;-68
2023/05/22 00:28:30;;;;;;;;;14.75;13.75;25.40;46.20;;;;;;111664;1240;45351;-68
2023/05/22 00:30:56;;;;;;;;;12.67;11.33;25.40;46.00;;;;;;111636;1238;55071;-66
2023/05/22 00:33:23;;;;;;;;;11.00;10.00;25.40;46.00;;;;;;111532;1241;53971;-66
2023/05/22 00:35:50;;;;;;;;;16.50;12.00;25.40;46.00;;;;;;111442;1235;49609;-66
2023/05/22 00:38:32;;;;;;;;;14.75;13.75;25.30;46.20;;;;;;111425;1237;49111;-66
2023/05/22 00:41:00;;;;;;;;;14.00;13.00;25.40;46.00;;;;;;111557;1237;46678;-67
2023/05/22 00:43:27;;;;;;;;;14.25;12.75;25.30;45.90;;;;;;111526;1239;55996;-67
2023/05/22 00:45:54;;;;;;;;;12.00;10.75;25.40;46.50;;;;;;111253;1238;54937;-68
2023/05/22 00:48:22;;;;;;;;;13.00;11.75;25.30;45.90;;;;;;111525;1241;49190;-67
2023/05/22 00:50:50;;;;;;;;;12.00;10.00;25.30;45.90;;;;;;111325;1243;49804;-68
2023/05/22 00:53:21;;;;;;;;;13.00;12.00;25.30;45.90;;;;;;111668;1235;47131;-67
2023/05/22 00:55:48;;;;;;;;;16.75;12.50;25.30;45.90;;;;;;111654;1237;57537;-68
2023/05/22 00:58:18;;;;;;;;;13.00;11.00;25.30;45.90;;;;;;111554;1235;53595;-68
2023/05/22 01:00:45;;;;;;;;;15.00;12.75;25.30;45.90;;;;;;111402;1237;49521;-70
2023/05/22 01:03:13;;;;;;;;;15.67;12.00;25.30;46.10;;;;;;111260;1243;49362;-69
2023/05/22 01:05:41;;;;;;;;;12.50;11.25;25.30;45.90;;;;;;111477;1237;46544;-68
2023/05/22 01:08:09;;;;;;;;;15.00;12.00;25.30;46.10;;;;;;111505;1237;56270;-66
2023/05/22 01:10:37;;;;;;;;;11.00;10.00;25.30;45.90;;;;;;111596;1241;54265;-68
2023/05/22 01:13:42;;;;;;;;;13.25;12.25;25.30;46.00;;;;;;111649;1235;49542;-66
2023/05/22 01:16:20;;;;;;;;;12.00;11.00;25.30;46.30;;;;;;111526;1239;49826;-68
2023/05/22 01:19:05;;;;;;;;;12.75;11.50;25.20;45.80;;;;;;111526;1241;47032;-67
2023/05/22 01:21:51;;;;;;;;;16.25;14.25;25.30;45.80;;;;;;111464;1240;58074;-67
2023/05/22 01:24:21;;;;;;;;;14.00;12.00;25.30;45.80;;;;;;111360;1237;55078;-68
2023/05/22 01:27:02;;;;;;;;;12.00;11.00;25.30;45.80;;;;;;111443;1237;49196;-68
2023/05/22 01:29:45;;;;;;;;;15.00;11.00;25.30;45.80;;;;;;111562;1238;48976;-68
2023/05/22 01:32:22;;;;;;;;;12.67;10.00;25.30;45.70;;;;;;111697;1235;46861;-68
2023/05/22 01:34:53;;;;;;;;;12.75;12.00;25.30;45.80;;;;;;111390;1243;56324;-68
2023/05/22 01:37:21;;;;;;;;;14.33;13.33;25.20;45.70;;;;;;111481;1240;55902;-67
2023/05/22 01:39:50;;;;;;;;;13.00;11.00;25.20;45.70;;;;;;111454;1239;50091;-67
2023/05/22 01:42:18;;;;;;;;;12.25;11.00;25.20;45.70;;;;;;111647;1235;50054;-68
2023/05/22 01:44:47;;;;;;;;;13.00;12.00;25.20;45.70;;;;;;111634;1235;46503;-68
2023/05/22 01:47:14;;;;;;;;;11.33;10.33;25.20;45.90;;;;;;111697;1237;56578;-67
2023/05/22 01:49:41;;;;;;;;;12.00;11.00;25.20;45.70;;;;;;111576;1237;53853;-68
2023/05/22 01:52:31;;;;;;;;;11.75;10.75;25.20;46.00;;;;;;111577;1237;49776;-68
2023/05/22 01:55:04;;;;;;;;;13.00;12.00;25.20;45.80;;;;;;111500;1243;50708;-68
2023/05/22 01:57:46;;;;;;;;;14.25;13.00;25.20;45.80;;;;;;111524;1240;46741;-68
2023/05/22 02:00:14;;;;;;;;;14.00;13.00;25.20;45.70;;;;;;111645;1238;57109;-67
2023/05/22 02:02:44;;;;;;;;;13.75;12.00;25.20;45.70;;;;;;111417;1237;53729;-66
2023/05/22 02:05:14;;;;;;;;;12.00;11.00;25.20;45.90;;;;;;111528;1236;49261;-67
2023/05/22 02:07:41;;;;;;;;;11.75;10.75;25.20;46.00;;;;;;111473;1241;49113;-68
2023/05/22 02:10:10;;;;;;;;;15.00;12.75;25.20;45.90;;;;;;111483;1242;46170;-69
2023/05/22 02:12:37;;;;;;;;;12.75;11.75;25.20;46.00;;;;;;111448;1238;57091;-68
2023/05/22 02:15:05;;;;;;;;;11.50;10.25;25.10;45.70;;;;;;111593;1238;53903;-68
2023/05/22 02:17:41;;;;;;;;;15.33;12.67;25.10;45.70;;;;;;111535;1238;50121;-68
2023/05/22 02:20:13;;;;;;;;;13.00;12.00;25.10;45.90;;;;;;111475;1237;49409;-68
2023/05/22 02:22:44;;;;;;;;;12.00;10.00;25.10;45.70;;;;;;111625;1237;46164;-68
2023/05/22 02:25:13;;;;;;;;;12.75;12.00;25.10;45.90;;;;;;111622;1235;56854;-65
2023/05/22 02:27:48;;;;;;;;;13.00;12.00;25.10;45.70;;;;;;111651;1240;53829;-67
2023/05/22 02:30:15;;;;;;;;;11.50;10.50;25.10;45.90;;;;;;111676;1235;50126;-66
2023/05/22 02:32:42;;;;;;;;;12.75;11.50;25.10;45.70;;;;;;111536;1235;49423;-67
2023/05/22 02:35:09;;;;;;;;;12.25;11.00;25.10;45.70;;;;;;111548;1237;45788;-68
2023/05/22 02:37:36;;;;;;;;;12.75;11.75;25.10;46.00;;;;;;111464;1238;56861;-68
2023/05/22 02:40:05;;;;;;;;;12.33;10.33;25.10;45.80;;;;;;111258;1241;54455;-67
2023/05/22 02:42:32;;;;;;;;;16.00;13.50;25.10;45.70;;;;;;111599;1241;49235;-68
2023/05/22 02:44:59;;;;;;;;;13.25;12.00;25.00;45.90;;;;;;111635;1240;49404;-67
2023/05/22 02:47:26;;;;;;;;;13.75;12.00;25.00;45.70;;;;;;111647;1240;46939;-67
2023/05/22 02:49:53;;;;;;;;;12.25;11.50;25.00;45.70;;;;;;111622;1240;56565;-68
2023/05/22 02:52:21;;;;;;;;;15.25;11.75;25.00;45.70;;;;;;111510;1235;54742;-68
2023/05/22 02:54:48;;;;;;;;;12.00;11.00;25.00;45.70;;;;;;111362;1238;49735;-68
2023/05/22 02:57:15;;;;;;;;;11.00;10.00;25.00;45.80;;;;;;111496;1241;49462;-67
2023/05/22 02:59:43;;;;;;;;;11.75;10.00;25.00;45.80;;;;;;111567;1235;47241;-67
2023/05/22 03:02:11;;;;;;;;;14.50;13.50;24.90;45.60;;;;;;111662;1240;57285;-65
2023/05/22 03:04:38;;;;;;;;;13.00;12.00;24.90;45.60;;;;;;111627;1238;54635;-68
2023/05/22 03:07:06;;;;;;;;;13.75;12.75;24.90;45.70;;;;;;111476;1238;49849;-67
2023/05/22 03:09:33;;;;;;;;;14.33;12.00;24.90;45.70;;;;;;111602;1240;49318;-66
2023/05/22 03:12:01;;;;;;;;;12.75;11.75;24.90;45.60;;;;;;111550;1238;46836;-66
2023/05/22 03:14:28;;;;;;;;;14.00;13.00;24.90;45.60;;;;;;111569;1240;56213;-66
2023/05/22 03:16:55;;;;;;;;;12.75;10.50;24.90;45.70;;;;;;111671;1238;53272;-67
2023/05/22 03:19:22;;;;;;;;;11.67;10.67;24.90;45.60;;;;;;111665;1241;49130;-68
2023/05/22 03:21:49;;;;;;;;;11.75;10.25;24.90;45.70;;;;;;111479;1237;49787;-67
2023/05/22 03:24:16;;;;;;;;;12.75;11.75;24.90;45.70;;;;;;111501;1235;47422;-66
2023/05/22 03:26:43;;;;;;;;;12.75;11.75;24.90;45.70;;;;;;111497;1237;56590;-66
2023/05/22 03:29:10;;;;;;;;;13.33;12.00;24.90;45.60;;;;;;111540;1237;54141;-68
2023/05/22 03:31:37;;;;;;;;;16.00;14.50;24.90;45.70;;;;;;111539;1241;49062;-68
2023/05/22 03:34:04;;;;;;;;;12.00;11.00;24.90;45.80;;;;;;111640;1236;48958;-68
2023/05/22 03:36:34;;;;;;;;;14.00;13.00;24.90;45.70;;;;;;111630;1240;46789;-71
2023/05/22 03:39:02;;;;;;;;;14.00;12.00;24.80;45.70;;;;;;111621;1241;56538;-69
2023/05/22 03:41:29;;;;;;;;;16.00;14.67;24.90;46.00;;;;;;111536;1240;54067;-64
2023/05/22 03:43:57;;;;;;;;;14.00;13.00;24.80;46.60;;;;;;111617;1240;49336;-70
2023/05/22 03:46:24;;;;;;;;;19.50;16.50;24.80;47.00;;;;;;111565;1243;49451;-70
2023/05/22 03:48:51;;;;;;;;;16.00;15.00;24.80;47.20;;;;;;111494;1237;46231;-63
2023/05/22 03:51:18;;;;;;;;;16.75;14.25;24.80;47.40;;;;;;111622;1243;56790;-66
2023/05/22 03:53:45;;;;;;;;;20.50;17.50;24.80;47.30;;;;;;111576;1240;53796;-65
2023/05/22 03:56:12;;;;;;;;;20.50;19.50;24.80;48.10;;;;;;111642;1235;49546;-65
2023/05/22 03:58:39;;;;;;;;;18.00;17.00;24.80;48.20;;;;;;111467;1238;48812;-64
2023/05/22 04:01:08;;;;;;;;;21.67;19.00;24.80;47.80;;;;;;111512;1238;47421;-67
2023/05/22 04:03:36;;;;;;;;;21.00;18.33;24.80;48.30;;;;;;111455;1239;57588;-65
2023/05/22 04:06:04;;;;;;;;;22.00;20.00;24.80;48.70;;;;;;111526;1241;54054;-66
2023/05/22 04:08:31;;;;;;;;;20.67;17.00;24.80;48.60;;;;;;111409;1238;49823;-62
2023/05/22 04:10:58;;;;;;;;;17.25;16.25;24.90;48.00;;;;;;111529;1238;49150;-63
2023/05/22 04:13:26;;;;;;;;;21.25;18.00;24.90;48.00;;;;;;111566;1235;47222;-63
2023/05/22 04:15:53;;;;;;;;;20.50;19.50;24.90;48.20;;;;;;111305;1237;57229;-65
2023/05/22 04:18:20;;;;;;;;;22.75;20.25;24.90;48.60;;;;;;111651;1240;53721;-63
2023/05/22 04:20:47;;;;;;;;;39.75;27.75;25.00;48.70;;;;;;111782;1235;49152;-64
2023/05/22 04:23:14;;;;;;;;;43.25;30.00;25.00;50.20;;;;;;111645;1238;49190;-61
2023/05/22 04:25:41;;;;;;;;;50.75;33.00;25.00;49.40;;;;;;111467;1235;46656;-64
2023/05/22 04:28:08;;;;;;;;;52.25;38.00;25.00;49.80;;;;;;111603;1238;56881;-63
2023/05/22 04:30:38;;;;;;;;;59.00;42.67;25.00;49.80;;;;;;111446;1238;54399;-62
2023/05/22 04:33:05;;;;;;;;;50.50;36.50;25.00;50.60;;;;;;111527;1240;49219;-61
2023/05/22 04:35:33;;;;;;;;;50.50;36.75;25.00;50.40;;;;;;111259;1238;50040;-62
2023/05/22 04:38:00;;;;;;;;;55.25;38.75;25.00;50.30;;;;;;111507;1237;46625;-61
2023/05/22 04:40:29;;;;;;;;;57.50;35.75;25.00;50.10;;;;;;111457;1236;56920;-64
2023/05/22 04:42:58;;;;;;;;;58.00;37.00;25.10;50.80;;;;;;111570;1235;53588;-64
2023/05/22 04:45:27;;;;;;;;;48.33;35.33;25.10;51.00;;;;;;111504;1235;49642;-64
2023/05/22 04:47:58;;;;;;;;;48.50;35.00;25.10;50.80;;;;;;111726;1236;49776;-66
2023/05/22 04:50:25;;;;;;;;;49.75;35.50;25.10;50.80;;;;;;111782;1236;46316;-68
2023/05/22 04:52:52;;;;;;;;;50.67;37.67;25.10;50.80;;;;;;111769;1240;56534;-65
2023/05/22 04:55:19;;;;;;;;;54.25;31.00;25.10;50.50;;;;;;112044;1238;53508;-66
2023/05/22 04:57:46;;;;;;;;;45.00;31.00;25.20;49.90;;;;;;111527;1240;48965;-65
2023/05/22 05:00:15;;;;;;;;;37.25;31.25;25.20;50.20;;;;;;111434;1241;50440;-65
2023/05/22 05:02:42;;;;;;;;;40.75;31.50;25.30;49.60;;;;;;112009;1240;47438;-68
2023/05/22 05:05:09;;;;;;;;;40.00;29.00;25.30;49.40;;;;;;111656;1238;56985;-65
2023/05/22 05:07:38;;;;;;;;;42.75;32.25;25.40;49.20;;;;;;111625;1241;53983;-65
2023/05/22 05:10:06;;;;;;;;;40.50;29.00;25.40;49.10;;;;;;111600;1240;49291;-64
2023/05/22 05:12:32;;;;;;;;;37.25;30.00;25.40;49.20;;;;;;111577;1237;49813;-65
2023/05/22 05:15:00;;;;;;;;;40.75;31.50;25.40;49.30;;;;;;111651;1240;46761;-64
2023/05/22 05:17:27;;;;;;;;;40.75;28.75;25.40;49.10;;;;;;111660;1237;56814;-64
2023/05/22 05:19:54;;;;;;;;;36.00;29.00;25.40;49.30;;;;;;111590;1236;54827;-64
2023/05/22 05:22:21;;;;;;;;;39.25;29.75;25.40;49.00;;;;;;111640;1240;49223;-65
2023/05/22 05:24:48;;;;;;;;;30.75;24.75;25.40;49.10;;;;;;111632;1242;49166;-65
2023/05/22 05:27:16;;;;;;;;;29.25;25.00;25.40;49.00;;;;;;111681;1240;46571;-64
2023/05/22 05:29:43;;;;;;;;;34.00;27.75;25.50;48.70;;;;;;111622;1239;56967;-64
2023/05/22 05:32:11;;;;;;;;;35.33;28.00;25.50;48.80;;;;;;111676;1235;53265;-63
2023/05/22 05:34:38;;;;;;;;;34.75;26.00;25.50;48.50;;;;;;111641;1239;49609;-64
2023/05/22 05:37:05;;;;;;;;;28.50;25.50;25.50;48.60;;;;;;111652;1235;49321;-65
2023/05/22 05:39:32;;;;;;;;;26.50;25.50;25.50;48.80;;;;;;111635;1239;46718;-65
2023/05/22 05:41:59;;;;;;;;;31.25;25.50;25.50;48.60;;;;;;111628;1241;57045;-65
2023/05/22 05:44:26;;;;;;;;;32.67;25.00;25.50;48.90;;;;;;111646;1237;54889;-64
2023/05/22 05:46:53;;;;;;;;;29.75;26.25;25.50;49.20;;;;;;111630;1235;49105;-64
2023/05/22 05:49:21;;;;;;;;;27.50;23.75;25.50;48.70;;;;;;111508;1238;48836;-64
2023/05/22 05:51:48;;;;;;;;;25.00;24.00;25.50;48.60;;;;;;111604;1240;47306;-65
2023/05/22 05:54:15;;;;;;;;;34.67;27.00;25.50;48.80;;;;;;111706;1240;56705;-65
2023/05/22 05:56:42;;;;;;;;;31.00;23.75;25.50;48.90;;;;;;111652;1235;55134;-65
2023/05/22 05:59:08;;;;;;;;;36.50;25.75;25.50;48.90;;;;;;111610;1237;49322;-65
2023/05/22 06:01:37;;;;;;;;;29.50;27.75;25.50;49.10;;;;;;111607;1235;49712;-65
2023/05/22 06:04:04;;;;;;;;;24.75;23.50;25.50;48.90;;;;;;111742;1235;46614;-64
2023/05/22 06:06:34;;;;;;;;;25.75;23.25;25.50;49.00;;;;;;111686;1239;57737;-65
2023/05/22 06:09:04;;;;;;;;;32.50;23.50;25.50;49.00;;;;;;111634;1237;53469;-66
2023/05/22 06:11:32;;;;;;;;;25.00;22.50;25.50;48.90;;;;;;111577;1239;49422;-67
2023/05/22 06:14:05;;;;;;;;;24.50;21.00;25.50;49.00;;;;;;111621;1235;49831;-65
2023/05/22 06:16:33;;;;;;;;;23.75;22.25;25.50;49.00;;;;;;111552;1238;46191;-64
2023/05/22 06:19:00;;;;;;;;;28.50;22.00;25.50;49.10;;;;;;111639;1239;56291;-65
2023/05/22 06:21:26;;;;;;;;;26.00;19.25;25.50;49.00;;;;;;111636;1235;53212;-64
2023/05/22 06:23:53;;;;;;;;;27.00;24.00;25.50;49.10;;;;;;111515;1241;49518;-65
2023/05/22 06:26:22;;;;;;;;;28.67;24.00;25.60;49.20;;;;;;111986;1236;49829;-64
2023/05/22 06:28:50;;;;;;;;;27.67;23.00;25.60;49.20;;;;;;111693;1239;46802;-65
2023/05/22 06:31:17;;;;;;;;;26.00;21.25;25.60;49.20;;;;;;111693;1235;57648;-63
2023/05/22 06:33:44;;;;;;;;;29.67;25.33;25.60;49.10;;;;;;111630;1238;54065;-64
2023/05/22 06:36:11;;;;;;;;;23.75;18.75;25.60;49.00;;;;;;111705;1237;49214;-64
2023/05/22 06:38:38;;;;;;;;;24.00;22.00;25.60;49.10;;;;;;111632;1236;50638;-64
2023/05/22 06:41:06;;;;;;;;;21.25;20.00;25.60;49.00;;;;;;111669;1236;46764;-64
2023/05/22 06:43:33;;;;;;;;;27.25;20.00;25.60;48.90;;;;;;111634;1240;56099;-64
2023/05/22 06:46:01;;;;;;;;;20.25;19.00;25.60;48.90;;;;;;111681;1235;53828;-64
2023/05/22 06:48:28;;;;;;;;;19.75;16.75;25.60;48.70;;;;;;111631;1237;49835;-65
2023/05/22 06:50:54;;;;;;;;;23.00;20.50;25.60;49.00;;;;;;111504;1242;49868;-64
2023/05/22 06:53:22;;;;;;;;;22.50;19.75;25.60;48.70;;;;;;111667;1235;47398;-61
2023/05/22 06:55:49;;;;;;;;;23.75;18.25;25.70;48.90;;;;;;111646;1235;57721;-61
2023/05/22 06:58:17;;;;;;;;;23.00;18.50;25.60;47.80;;;;;;111557;1240;53769;-63
2023/05/22 07:00:44;;;;;;;;;22.67;20.00;25.60;48.10;;;;;;111476;1238;49654;-64
2023/05/22 07:03:11;;;;;;;;;25.25;18.50;25.60;47.80;;;;;;111651;1238;49421;-64
2023/05/22 07:05:38;;;;;;;;;21.50;20.50;25.60;48.00;;;;;;111730;1235;46674;-62
2023/05/22 07:08:05;;;;;;;;;20.75;17.50;25.60;48.00;;;;;;111650;1241;57275;-62
2023/05/22 07:10:32;;;;;;;;;22.25;19.00;25.60;47.90;;;;;;111662;1240;54055;-62
2023/05/22 07:12:59;;;;;;;;;18.50;17.50;25.60;48.00;;;;;;111628;1237;49773;-63
2023/05/22 07:15:26;;;;;;;;;18.33;17.33;25.60;48.20;;;;;;111673;1237;49275;-62
2023/05/22 07:17:53;;;;;;;;;20.50;17.25;25.60;48.20;;;;;;111724;1239;45981;-61
2023/05/22 07:20:20;;;;;;;;;17.00;16.00;25.60;47.80;;;;;;111672;1239;57162;-62
2023/05/22 07:22:47;;;;;;;;;23.33;18.00;25.60;47.90;;;;;;111653;1240;54895;-60
2023/05/22 07:25:13;;;;;;;;;16.00;13.25;25.60;45.90;;;;;;111810;1239;49123;-61
2023/05/22 07:27:40;;;;;;;;;14.00;13.00;25.60;44.40;;;;;;111776;1239;49425;-63
2023/05/22 07:30:08;;;;;;;;;17.67;15.67;25.60;43.60;;;;;;111816;1237;45926;-66
2023/05/22 07:32:35;;;;;;;;;17.67;15.00;25.60;42.40;;;;;;111808;1235;56739;-63
2023/05/22 07:35:02;;;;;;;;;15.67;14.67;25.60;43.00;;;;;;111859;1235;53209;-62
2023/05/22 07:37:30;;;;;;;;;16.25;15.00;25.60;43.60;;;;;;111648;1237;49502;-62
2023/05/22 07:39:57;;;;;;;;;18.67;17.67;25.70;43.40;;;;;;111695;1235;50682;-62
2023/05/22 07:42:26;;;;;;;;;15.75;14.75;25.70;45.50;;;;;;111703;1240;46694;-60
2023/05/22 07:44:53;;;;;;;;;17.00;16.00;25.70;44.20;;;;;;111647;1238;57130;-60
2023/05/22 07:47:19;;;;;;;;;18.75;15.25;25.70;43.50;;;;;;111652;1241;54474;-59
2023/05/22 07:49:46;;;;;;;;;17.00;16.25;25.70;45.10;;;;;;111650;1240;49517;-60
2023/05/22 07:52:13;;;;;;;;;20.75;16.00;25.70;45.50;;;;;;111677;1240;50220;-61
2023/05/22 07:54:40;;;;;;;;;17.00;16.00;25.70;44.90;;;;;;111782;1235;46580;-60
2023/05/22 07:57:07;;;;;;;;;15.75;14.75;25.70;42.90;;;;;;111760;1240;56116;-61
2023/05/22 07:59:36;;;;;;;;;13.75;12.50;25.70;40.50;;;;;;111759;1240;55016;-61
2023/05/22 08:02:03;;;;;;;;;14.50;13.50;25.80;40.40;;;;;;111750;1240;49504;-59
2023/05/22 08:04:30;;;;;;;;;14.25;12.50;25.80;40.40;;;;;;111780;1235;50549;-60
2023/05/22 08:06:58;;;;;;;;;16.50;12.75;25.80;41.40;;;;;;111698;1240;46669;-59
2023/05/22 08:09:25;;;;;;;;;15.00;13.75;25.80;41.20;;;;;;111610;1237;57578;-59
2023/05/22 08:11:52;;;;;;;;;14.67;13.67;25.80;42.00;;;;;;111745;1236;53908;-64
2023/05/22 08:14:20;;;;;;;;;15.25;14.00;25.90;42.90;;;;;;111719;1240;49758;-63
2023/05/22 08:16:48;;;;;;;;;18.50;15.00;25.90;43.70;;;;;;111704;1235;49899;-62
2023/05/22 08:19:15;;;;;;;;;14.33;13.33;25.90;44.00;;;;;;111629;1237;47660;-62
2023/05/22 08:21:42;;;;;;;;;15.00;13.75;26.00;42.40;;;;;;111660;1242;56764;-61
2023/05/22 08:24:09;;;;;;;;;15.75;12.75;26.00;42.80;;;;;;111624;1237;54378;-62
2023/05/22 08:26:37;;;;;;;;;16.75;16.00;26.00;42.20;;;;;;111650;1235;49717;-61
2023/05/22 08:29:04;;;;;;;;;15.33;14.00;26.00;43.20;;;;;;111579;1235;49415;-61
2023/05/22 08:31:33;;;;;;;;;15.00;14.00;26.00;41.80;;;;;;111647;1235;47452;-60
2023/05/22 08:34:01;;;;;;;;;16.33;15.00;26.00;41.60;;;;;;111653;1238;56869;-60
2023/05/22 08:36:32;;;;;;;;;13.00;12.00;26.00;40.80;;;;;;112000;1240;54889;-60
2023/05/22 08:39:00;;;;;;;;;14.00;13.00;26.00;42.20;;;;;;111645;1235;49438;-60
2023/05/22 08:41:27;;;;;;;;;14.50;13.50;26.10;42.70;;;;;;111652;1237;49731;-60
2023/05/22 08:43:54;;;;;;;;;17.00;14.25;26.10;41.60;;;;;;111690;1235;46626;-59
2023/05/22 08:46:24;;;;;;;;;14.67;13.67;26.10;41.20;;;;;;111581;1237;57073;-59
2023/05/22 08:48:55;;;;;;;;;17.50;14.00;26.10;42.10;;;;;;111509;1240;54331;-60
2023/05/22 08:51:27;;;;;;;;;15.00;13.75;26.10;41.70;;;;;;111646;1236;49265;-61
2023/05/22 08:53:55;;;;;;;;;16.75;14.25;26.10;42.70;;;;;;111699;1235;49611;-61
2023/05/22 08:56:23;;;;;;;;;16.50;13.75;26.10;43.10;;;;;;111523;1237;47320;-60
2023/05/22 08:58:50;;;;;;;;;17.00;16.00;26.10;43.10;;;;;;111615;1236;56625;-61
2023/05/22 09:01:17;;;;;;;;;15.67;13.00;26.20;41.90;;;;;;111117;1238;723624;-61
2023/05/22 09:03:49;;;;;;;;;17.75;15.50;26.20;42.10;;;;;;111590;1241;50481;-64
2023/05/22 09:06:17;;;;;;;;;15.00;14.00;26.20;42.80;;;;;;111650;1237;49710;-65
2023/05/22 09:08:44;;;;;;;;;16.00;14.00;26.30;43.30;;;;;;111684;1236;46331;-65
2023/05/22 09:11:12;;;;;;;;;18.50;16.00;26.30;42.80;;;;;;111692;1237;56633;-65
2023/05/22 09:13:40;;;;;;;;;15.00;12.33;26.40;43.40;;;;;;111734;1235;53484;-65
2023/05/22 09:16:13;;;;;;;;;16.75;15.75;26.40;42.00;;;;;;111812;1235;50053;-64
2023/05/22 09:18:43;;;;;;;;;15.25;13.00;26.40;43.10;;;;;;111773;1241;49373;-65
2023/05/22 09:21:13;;;;;;;;;19.00;15.00;26.40;43.50;;;;;;111714;1236;46987;-65
2023/05/22 09:23:40;;;;;;;;;15.00;14.00;26.50;43.70;;;;;;111673;1238;57713;-64
2023/05/22 09:26:07;;;;;;;;;15.00;14.00;26.50;43.70;;;;;;111654;1240;54060;-65
2023/05/22 09:28:35;;;;;;;;;15.67;14.33;26.50;43.70;;;;;;111688;1235;49990;-64
2023/05/22 09:31:04;;;;;;;;;17.00;15.33;26.50;43.70;;;;;;111743;1239;49724;-65
2023/05/22 09:33:32;;;;;;;;;14.00;12.75;26.60;43.60;;;;;;111710;1240;46840;-65
2023/05/22 09:36:00;;;;;;;;;15.75;15.00;26.60;43.70;;;;;;111706;1240;56785;-64
2023/05/22 09:38:28;;;;;;;;;16.00;15.00;26.60;43.80;;;;;;111737;1235;53642;-65
2023/05/22 09:40:56;;;;;;;;;15.00;14.00;26.60;43.70;;;;;;111768;1240;49947;-62
2023/05/22 09:43:24;;;;;;;;;16.00;13.75;26.60;43.70;;;;;;111719;1237;49560;-60
2023/05/22 09:46:00;;;;;;;;;17.00;16.00;26.60;43.80;;;;;;111765;1237;47085;-59
2023/05/22 09:48:27;;;;;;;;;15.33;12.67;26.60;44.00;;;;;;111733;1241;55945;-60
2023/05/22 09:50:54;;;;;;;;;18.00;16.00;26.60;44.40;;;;;;111675;1235;54825;-59
2023/05/22 09:53:27;;;;;;;;;15.50;14.50;26.60;44.20;;;;;;111669;1235;49065;-59
2023/05/22 09:55:58;;;;;;;;;17.00;16.00;26.60;44.00;;;;;;111714;1240;49277;-59
2023/05/22 09:58:27;;;;;;;;;15.00;13.75;26.60;44.30;;;;;;111722;1240;46025;-61
2023/05/22 10:00:57;;;;;;;;;13.67;12.00;26.60;44.30;;;;;;111568;1242;57092;-61
2023/05/22 10:03:25;;;;;;;;;16.00;13.00;26.60;44.40;;;;;;111623;1238;53493;-60
2023/05/22 10:05:54;;;;;;;;;14.75;13.75;26.60;44.30;;;;;;111678;1240;49542;-60
2023/05/22 10:08:27;;;;;;;;;19.00;15.00;26.60;45.10;;;;;;111703;1237;50444;-60
2023/05/22 10:10:54;;;;;;;;;21.00;16.25;26.60;44.50;;;;;;111699;1241;46545;-59
2023/05/22 10:13:23;;;;;;;;;15.50;14.00;26.60;43.90;;;;;;111846;1239;56578;-61
2023/05/22 10:15:50;;;;;;;;;14.75;13.75;26.60;43.90;;;;;;111931;1240;54616;-62
2023/05/22 10:18:17;;;;;;;;;19.75;18.75;26.70;44.10;;;;;;111720;1237;50190;-60
2023/05/22 10:20:45;;;;;;;;;16.50;12.75;26.70;44.30;;;;;;111720;1237;49265;-61
2023/05/22 10:23:15;;;;;;;;;15.00;14.00;26.70;44.40;;;;;;111749;1236;46201;-61
2023/05/22 10:25:43;;;;;;;;;15.33;14.33;26.70;44.10;;;;;;111759;1235;57037;-60
2023/05/22 10:28:14;;;;;;;;;16.00;15.00;26.80;44.70;;;;;;111825;1238;54862;-59
2023/05/22 10:30:59;;;;;;;;;15.00;14.00;26.80;44.80;;;;;;111661;1241;49664;-64
2023/05/22 10:33:38;;;;;;;;;16.25;15.25;26.90;44.90;;;;;;111884;1235;49821;-65
2023/05/22 10:36:27;;;;;;;;;14.00;12.00;27.00;45.00;;;;;;111838;1237;46411;-64
2023/05/22 10:39:10;;;;;;;;;15.00;14.00;27.00;44.80;;;;;;111953;1238;56187;-65
2023/05/22 10:41:37;;;;;;;;;16.50;14.25;27.10;44.80;;;;;;111649;1242;54427;-65
2023/05/22 10:44:04;;;;;;;;;16.00;14.00;27.20;44.60;;;;;;111794;1237;49918;-64
2023/05/22 10:46:35;;;;;;;;;14.00;13.00;27.20;44.50;;;;;;111889;1235;49967;-66
2023/05/22 10:49:02;;;;;;;;;15.75;14.75;27.30;44.30;;;;;;111638;1241;46851;-65
2023/05/22 10:51:33;;;;;;;;;13.50;12.50;27.30;44.20;;;;;;111657;1239;56336;-62
2023/05/22 10:54:04;;;;;;;;;17.00;14.00;27.30;44.10;;;;;;111578;1237;54743;-64
2023/05/22 10:56:33;;;;;;;;;19.75;18.75;27.30;44.30;;;;;;111618;1240;50129;-63
2023/05/22 10:59:03;;;;;;;;;16.00;15.00;27.30;44.00;;;;;;111647;1239;48916;-64
2023/05/22 11:01:34;;;;;;;;;14.67;13.33;27.30;44.20;;;;;;111588;1235;46377;-63
2023/05/22 11:04:05;;;;;;;;;16.00;14.00;27.30;44.00;;;;;;111671;1235;55969;-66
2023/05/22 11:07:13;;;;;;;;;17.75;16.00;27.30;44.00;;;;;;111575;1235;54896;-65
2023/05/22 11:09:42;;;;;;;;;17.67;15.00;27.30;43.40;;;;;;110999;1244;49687;-65
2023/05/22 11:12:23;;;;;;;;;15.67;14.00;27.40;43.20;;;;;;111445;1236;49684;-63
2023/05/22 11:14:52;;;;;;;;;16.00;15.00;27.40;43.00;;;;;;111635;1240;46729;-63
2023/05/22 11:17:30;;;;;;;;;16.00;13.33;27.40;43.00;;;;;;111691;1237;57136;-67
2023/05/22 11:20:06;;;;;;;;;15.50;14.00;27.40;43.10;;;;;;111659;1240;53367;-63
2023/05/22 11:22:34;;;;;;;;;17.33;15.00;27.40;43.00;;;;;;111603;1245;49944;-65
2023/05/22 11:25:10;;;;;;;;;15.00;14.00;27.40;42.80;;;;;;111609;1235;49156;-63
2023/05/22 11:27:40;;;;;;;;;17.00;16.00;27.40;43.00;;;;;;111733;1240;46337;-62
2023/05/22 11:30:09;;;;;;;;;18.33;17.00;27.40;42.60;;;;;;111523;1243;57679;-62
2023/05/22 11:32:37;;;;;;;;;18.00;15.50;27.40;42.70;;;;;;111595;1241;53983;-61
2023/05/22 11:35:07;;;;;;;;;17.67;16.67;27.40;42.20;;;;;;111685;1236;49767;-63
2023/05/22 11:37:38;;;;;;;;;15.00;14.00;27.40;42.40;;;;;;111623;1235;48846;-66
2023/05/22 11:40:06;;;;;;;;;14.00;12.75;27.40;42.40;;;;;;111713;1241;46698;-63
2023/05/22 11:42:34;;;;;;;;;18.25;15.25;27.40;42.30;;;;;;111645;1235;56546;-64
2023/05/22 11:45:02;;;;;;;;;20.25;17.00;27.30;42.20;;;;;;111701;1235;53809;-64
2023/05/22 11:47:29;;;;;;;;;16.75;15.25;27.30;42.40;;;;;;111623;1240;50091;-61
2023/05/22 11:49:58;;;;;;;;;16.50;14.00;27.30;42.40;;;;;;111713;1235;49030;-62
2023/05/22 11:52:32;;;;;;;;;15.75;14.75;27.30;42.60;;;;;;111660;1235;46835;-66
2023/05/22 11:54:59;;;;;;;;;17.25;16.50;27.30;42.60;;;;;;111576;1237;56256;-65
2023/05/22 11:57:27;;;;;;;;;16.25;15.25;27.30;42.60;;;;;;111657;1241;53764;-65
2023/05/22 11:59:54;;;;;;;;;15.00;14.00;27.30;43.00;;;;;;111727;1235;50389;-66
2023/05/22 12:02:21;;;;;;;;;19.33;16.00;27.30;42.90;;;;;;111648;1235;48897;-66
2023/05/22 12:04:53;;;;;;;;;17.00;15.75;27.30;43.10;;;;;;111640;1239;46431;-65
2023/05/22 12:07:21;;;;;;;;;13.50;12.50;27.30;43.20;;;;;;111863;1240;56749;-64
2023/05/22 12:09:48;;;;;;;;;16.00;14.50;27.20;43.30;;;;;;111868;1235;54222;-61
2023/05/22 12:12:16;;;;;;;;;14.00;13.00;27.20;43.60;;;;;;111475;1237;49256;-63
2023/05/22 12:14:46;;;;;;;;;15.25;14.50;27.30;43.70;;;;;;111679;1237;49423;-63
2023/05/22 12:17:14;;;;;;;;;18.75;15.50;27.30;43.80;;;;;;111559;1241;47121;-62
2023/05/22 12:19:47;;;;;;;;;18.00;15.67;27.30;43.80;;;;;;111724;1235;57026;-61
2023/05/22 12:22:14;;;;;;;;;17.00;16.00;27.40;43.10;;;;;;111611;1240;53801;-65
2023/05/22 12:24:45;;;;;;;;;18.33;15.33;27.40;43.50;;;;;;111666;1240;48825;-61
2023/05/22 12:27:12;;;;;;;;;21.50;16.50;27.40;44.00;;;;;;111591;1237;50914;-62